Cincinnati Municipal Airport Lunken Field (LUK)

 

Airport Diagram
Current Weather/Forecast (VFR Conditions)
METAR KLUK 071353Z 27005KT 10SM FEW085 10/06 A3007 RMK AO2 SLP182 T01000056
TAF KLUK 071123Z 0712/0812 33008KT P6SM SCT015 TEMPO 0712/0713 BKN011 FM071600 30011G18KT P6SM SCT045 FM072100 27012G18KT P6SM VCTS BKN050CB FM080100 31008KT P6SM SCT070 FM080500 31004KT P6SM FEW250

Airport Information

All Charts
General
Chart Name View
AIRPORT DIAGRAM
TAKEOFF MINIMUMS
ALTERNATE MINIMUMS
HOT SPOT

Departures
Chart Name Download
ROCKT ONE (RNAV)
ROCKT ONE (RNAV), CONT.1

Arrivals
Chart Name Download
BRUSH FOUR
BRUSH FOUR, CONT.1
CINCE NINE
HARDU FIVE
HARDU FIVE, CONT.1
HEDEE FOUR
HEDEE FOUR, CONT.1
SHELBYVILLE SIX
SHELBYVILLE SIX, CONT.1

Approaches
Chart Name Download
ILS OR LOC RWY 21L
RNAV (GPS) RWY 03R
RNAV (GPS) RWY 21L
RNAV (GPS) RWY 25
LOC BC RWY 03R


Airport Statistics
Departures Arrivals Local
All Collected Stats since June 2016: 170 124 6
2021 Stats: 21 20 1
May Stats: 0 0 0

Inbound Traffic (Arrivals) - 0

No inbound traffic.


Outbound Traffic (Departures) - 0

No outbound traffic.


Local Traffic (Pattern) - 0

No local traffic.